Time;durP1;ratioP1;P1;durP2;ratioP2;P2;SDS_P1;SDS_P2;PMS_P1;PMS_P2;Temp;Humidity;BMP_temperature;BMP_pressure;BME280_temperature;BME280_humidity;BME280_pressure;Samples;Min_cycle;Max_cycle;Signal;HPM_P1;HPM_P2
2023/01/06 00:01:16;;;;;;;41.28;14.05;;;10.10;99.90;;;;;;5041573;28;20049;-61
2023/01/06 00:03:42;;;;;;;;;;;10.10;99.90;;;;;;5036228;28;20048;-62
2023/01/06 00:06:10;;;;;;;36.50;13.35;;;10.10;99.90;;;;;;5036234;28;20068;-61
2023/01/06 00:08:39;;;;;;;51.08;13.18;;;10.10;99.90;;;;;;5039579;28;20060;-61
2023/01/06 00:11:10;;;;;;;36.08;12.05;;;10.10;99.90;;;;;;5038649;28;20774;-61
2023/01/06 00:13:37;;;;;;;42.35;11.50;;;10.10;99.90;;;;;;5036510;28;20075;-62
2023/01/06 00:16:11;;;;;;;41.63;11.88;;;10.20;99.90;;;;;;5039580;28;20059;-61
2023/01/06 00:18:37;;;;;;;37.83;11.38;;;10.10;99.90;;;;;;5052029;28;20593;-62
2023/01/06 00:21:04;;;;;;;43.95;11.27;;;10.10;99.90;;;;;;5042187;28;20118;-61
2023/01/06 00:23:31;;;;;;;39.00;10.18;;;10.20;99.90;;;;;;5041963;28;20420;-61
2023/01/06 00:25:56;;;;;;;38.15;11.25;;;10.20;99.90;;;;;;5042613;28;20401;-61
2023/01/06 00:28:22;;;;;;;39.75;11.52;;;10.20;99.90;;;;;;5043770;28;20048;-62
2023/01/06 00:30:48;;;;;;;49.00;10.23;;;10.20;99.90;;;;;;5043997;28;20392;-61
2023/01/06 00:33:14;;;;;;;34.83;9.68;;;10.20;99.90;;;;;;5034239;28;20045;-61
2023/01/06 00:35:40;;;;;;;35.72;9.40;;;10.20;99.90;;;;;;5044647;28;20133;-62
2023/01/06 00:38:06;;;;;;;38.83;9.70;;;10.20;99.90;;;;;;5043268;28;20040;-61
2023/01/06 00:40:32;;;;;;;39.53;9.57;;;10.20;99.90;;;;;;5040768;28;20044;-61
2023/01/06 00:42:57;;;;;;;38.80;9.32;;;10.20;99.90;;;;;;5030165;28;20074;-61
2023/01/06 00:45:23;;;;;;;33.60;9.43;;;10.20;99.90;;;;;;5029548;28;20044;-61
2023/01/06 00:47:49;;;;;;;38.08;9.85;;;10.20;99.90;;;;;;5036542;28;20479;-61
2023/01/06 00:50:15;;;;;;;39.40;8.75;;;10.20;99.90;;;;;;5044576;28;20049;-61
2023/01/06 00:52:40;;;;;;;35.35;8.10;;;10.20;99.90;;;;;;5045099;28;20051;-61
2023/01/06 00:55:06;;;;;;;29.63;7.97;;;10.20;99.90;;;;;;5042435;28;20049;-62
2023/01/06 00:57:32;;;;;;;34.10;7.35;;;10.20;99.90;;;;;;5045816;28;20563;-62
2023/01/06 00:59:58;;;;;;;24.83;7.40;;;10.20;99.90;;;;;;5052043;28;20057;-62
2023/01/06 01:02:24;;;;;;;26.13;6.95;;;10.20;99.90;;;;;;5044006;28;20119;-62
2023/01/06 01:04:49;;;;;;;37.13;7.50;;;10.20;99.90;;;;;;5027937;28;20033;-60
2023/01/06 01:07:15;;;;;;;29.42;7.93;;;10.20;99.90;;;;;;5050730;28;20294;-61
2023/01/06 01:09:41;;;;;;;22.80;6.95;;;10.20;99.90;;;;;;5041194;28;20135;-62
2023/01/06 01:12:08;;;;;;;27.30;7.68;;;10.30;99.90;;;;;;5042395;28;20155;-62
2023/01/06 01:14:51;;;;;;;22.65;7.47;;;10.20;99.90;;;;;;5042133;28;20044;-61
2023/01/06 01:17:19;;;;;;;;;;;10.20;99.90;;;;;;5040614;28;27723;-61
2023/01/06 01:19:45;;;;;;;27.77;6.25;;;10.20;99.90;;;;;;5040569;28;20271;-62
2023/01/06 01:22:12;;;;;;;17.75;5.90;;;10.20;99.90;;;;;;5045425;28;20136;-61
2023/01/06 01:24:38;;;;;;;18.02;5.30;;;10.20;99.90;;;;;;5045233;28;20048;-62
2023/01/06 01:27:04;;;;;;;18.40;4.93;;;10.20;99.90;;;;;;5023146;28;20060;-62
2023/01/06 01:29:30;;;;;;;20.38;4.95;;;10.30;99.90;;;;;;5040566;28;20052;-61
2023/01/06 01:31:56;;;;;;;16.27;4.43;;;10.30;99.90;;;;;;5042333;28;20044;-61
2023/01/06 01:34:22;;;;;;;19.92;4.25;;;10.20;99.90;;;;;;5040801;28;20053;-62
2023/01/06 01:36:49;;;;;;;13.07;3.95;;;10.20;99.90;;;;;;5042589;28;20044;-61
2023/01/06 01:39:17;;;;;;;13.88;4.25;;;10.20;99.90;;;;;;5041141;28;20512;-61
2023/01/06 01:41:43;;;;;;;16.88;4.05;;;10.20;99.90;;;;;;5042469;28;20044;-62
2023/01/06 01:44:46;;;;;;;15.98;4.53;;;10.20;99.90;;;;;;5039005;28;20045;-62
2023/01/06 01:47:21;;;;;;;12.38;3.35;;;10.20;99.90;;;;;;5040822;28;20509;-62
2023/01/06 01:49:50;;;;;;;12.70;4.38;;;10.20;99.90;;;;;;5042710;28;20052;-61
2023/01/06 01:52:17;;;;;;;18.55;3.95;;;10.20;99.90;;;;;;5037595;28;20051;-62
2023/01/06 01:54:43;;;;;;;17.27;4.32;;;10.20;99.90;;;;;;5038903;28;20144;-62
2023/01/06 01:57:14;;;;;;;14.18;4.32;;;10.20;99.90;;;;;;5045083;28;20110;-61
2023/01/06 01:59:41;;;;;;;13.95;4.32;;;10.20;99.90;;;;;;5041465;28;20056;-62
2023/01/06 02:02:08;;;;;;;17.33;4.70;;;10.10;99.90;;;;;;5039948;28;20052;-62
2023/01/06 02:04:37;;;;;;;16.73;4.68;;;10.10;99.90;;;;;;5039115;28;20055;-62
2023/01/06 02:07:04;;;;;;;19.23;4.88;;;10.10;99.90;;;;;;5039293;28;20045;-62
2023/01/06 02:09:32;;;;;;;13.07;4.60;;;10.10;99.90;;;;;;5042525;28;20147;-61
2023/01/06 02:11:58;;;;;;;15.77;5.18;;;10.20;99.90;;;;;;5041454;28;20086;-62
2023/01/06 02:14:26;;;;;;;21.88;6.22;;;10.10;99.90;;;;;;5038571;28;20132;-61
2023/01/06 02:17:04;;;;;;;13.70;5.68;;;10.10;99.90;;;;;;5039142;28;20048;-62
2023/01/06 02:19:38;;;;;;;14.77;5.40;;;10.10;99.90;;;;;;5041080;28;20484;-62
2023/01/06 02:22:34;;;;;;;13.85;5.72;;;10.10;99.90;;;;;;5043248;28;20059;-62
2023/01/06 02:25:31;;;;;;;15.20;5.43;;;10.10;99.90;;;;;;5047476;28;20044;-62
2023/01/06 02:28:25;;;;;;;14.20;5.25;;;10.10;99.90;;;;;;5042649;28;20076;-61
2023/01/06 02:31:15;;;;;;;22.10;5.80;;;10.10;99.90;;;;;;5039377;28;20052;-61
2023/01/06 02:33:59;;;;;;;17.13;5.47;;;10.10;99.90;;;;;;5044168;28;20044;-61
2023/01/06 02:36:51;;;;;;;14.73;5.35;;;10.10;99.90;;;;;;5043499;28;20147;-62
2023/01/06 02:39:48;;;;;;;17.77;5.00;;;10.10;99.90;;;;;;5041911;28;20486;-62
2023/01/06 02:42:44;;;;;;;16.52;5.28;;;10.10;99.90;;;;;;5041507;28;20049;-61
2023/01/06 02:45:27;;;;;;;14.40;5.05;;;10.10;99.90;;;;;;5029400;28;20152;-61
2023/01/06 02:47:56;;;;;;;;;;;10.10;99.90;;;;;;5042517;28;20040;-62
2023/01/06 02:50:42;;;;;;;15.20;4.55;;;10.10;99.90;;;;;;5043561;28;19924;-62
2023/01/06 02:53:23;;;;;;;13.88;4.57;;;10.10;99.90;;;;;;5040987;28;20040;-61
2023/01/06 02:55:52;;;;;;;14.45;5.00;;;10.10;99.90;;;;;;5049442;28;20045;-62
2023/01/06 02:58:26;;;;;;;17.48;4.60;;;10.10;99.90;;;;;;5044494;28;20145;-62
2023/01/06 03:01:02;;;;;;;12.38;4.78;;;10.10;99.90;;;;;;5040369;28;20044;-62
2023/01/06 03:03:32;;;;;;;9.25;4.15;;;10.10;99.90;;;;;;5043365;28;20115;-62
2023/01/06 03:06:04;;;;;;;9.88;4.18;;;10.10;99.90;;;;;;5032183;28;20049;-62
2023/01/06 03:08:31;;;;;;;11.57;4.60;;;10.10;99.90;;;;;;5037323;28;20061;-61
2023/01/06 03:10:59;;;;;;;12.95;4.85;;;10.10;99.90;;;;;;5038671;28;20048;-61
2023/01/06 03:13:45;;;;;;;16.67;4.72;;;10.10;99.90;;;;;;5041719;28;20044;-62
2023/01/06 03:16:12;;;;;;;10.68;4.65;;;10.10;99.90;;;;;;5032517;28;20068;-61
2023/01/06 03:18:40;;;;;;;15.00;4.57;;;10.10;99.90;;;;;;5042146;28;20563;-61
2023/01/06 03:21:11;;;;;;;16.17;4.43;;;10.10;99.90;;;;;;5041868;28;20106;-61
2023/01/06 03:23:39;;;;;;;13.32;4.07;;;10.10;99.90;;;;;;5038383;28;20495;-61
2023/01/06 03:26:05;;;;;;;8.23;4.40;;;10.10;99.90;;;;;;5039915;28;20078;-60
2023/01/06 03:28:31;;;;;;;10.27;4.88;;;10.10;99.90;;;;;;5030392;28;20051;-60
2023/01/06 03:31:17;;;;;;;11.73;4.95;;;10.10;99.90;;;;;;5039153;28;20486;-62
2023/01/06 03:34:10;;;;;;;15.00;5.65;;;10.10;99.90;;;;;;5041341;28;20060;-62
2023/01/06 03:36:42;;;;;;;;;;;10.10;99.90;;;;;;5039724;28;20091;-62
2023/01/06 03:39:21;;;;;;;12.65;5.15;;;10.10;99.90;;;;;;5036817;28;19925;-61
2023/01/06 03:44:51;;;;;;;10.82;5.40;;;10.10;99.90;;;;;;5030904;28;20044;-63
2023/01/06 03:47:32;;;;;;;13.48;4.72;;;10.10;99.90;;;;;;5009514;28;20049;-62
2023/01/06 03:50:12;;;;;;;8.82;4.85;;;10.00;99.90;;;;;;5042434;28;20499;-61
2023/01/06 03:53:18;;;;;;;7.82;4.80;;;10.10;99.90;;;;;;5043788;28;20128;-62
2023/01/06 03:55:54;;;;;;;14.98;5.85;;;10.10;99.90;;;;;;5039601;28;20056;-62
2023/01/06 03:58:19;;;;;;;15.93;5.82;;;10.10;99.90;;;;;;5028585;28;20048;-62
2023/01/06 04:00:46;;;;;;;11.15;5.38;;;10.10;99.90;;;;;;5042045;28;20049;-62
2023/01/06 04:03:15;;;;;;;10.80;5.20;;;10.10;99.90;;;;;;5029335;28;20045;-61
2023/01/06 04:05:41;;;;;;;6.88;4.75;;;10.10;99.90;;;;;;5046242;28;20052;-61
2023/01/06 04:08:06;;;;;;;10.75;5.68;;;10.10;99.90;;;;;;5024523;28;20087;-62
2023/01/06 04:10:32;;;;;;;9.95;5.93;;;10.10;99.90;;;;;;5034013;28;20063;-62
2023/01/06 04:12:58;;;;;;;10.45;6.80;;;10.10;99.90;;;;;;5027256;28;20314;-61
2023/01/06 04:15:28;;;;;;;9.77;7.30;;;10.10;99.90;;;;;;5028671;28;20049;-62
2023/01/06 04:17:54;;;;;;;11.73;7.85;;;10.10;99.90;;;;;;5043601;28;20045;-61
2023/01/06 04:20:23;;;;;;;13.68;7.93;;;10.10;99.90;;;;;;5040689;28;20036;-62
2023/01/06 04:22:49;;;;;;;11.90;8.45;;;10.10;99.90;;;;;;5043478;28;20048;-62
2023/01/06 04:25:15;;;;;;;11.63;8.07;;;10.00;99.90;;;;;;5043975;28;20041;-62
2023/01/06 04:27:42;;;;;;;11.45;7.35;;;10.00;99.90;;;;;;5044065;28;20036;-62
2023/01/06 04:30:08;;;;;;;11.52;7.85;;;10.00;99.90;;;;;;5041985;28;20036;-62
2023/01/06 04:32:34;;;;;;;11.73;7.32;;;10.00;99.90;;;;;;5044242;28;20037;-62
2023/01/06 04:35:00;;;;;;;10.57;7.25;;;10.00;99.90;;;;;;5026102;28;20190;-62
2023/01/06 04:37:26;;;;;;;12.18;6.75;;;10.00;99.90;;;;;;5044237;28;20475;-62
2023/01/06 04:39:51;;;;;;;9.27;6.10;;;10.00;99.90;;;;;;5030512;28;20132;-61
2023/01/06 04:42:17;;;;;;;12.48;6.65;;;10.00;99.90;;;;;;5047188;28;20125;-61
2023/01/06 04:44:43;;;;;;;17.77;6.90;;;10.00;99.90;;;;;;5048415;28;20127;-62
2023/01/06 04:47:09;;;;;;;10.77;6.38;;;10.10;99.90;;;;;;5044340;28;20079;-61
2023/01/06 04:49:35;;;;;;;14.10;6.10;;;10.00;99.90;;;;;;5044419;28;20502;-62
2023/01/06 04:52:01;;;;;;;8.25;5.80;;;10.10;99.90;;;;;;5044170;28;20045;-61
2023/01/06 04:54:27;;;;;;;15.18;6.40;;;10.10;99.90;;;;;;5045080;28;20060;-62
2023/01/06 04:56:53;;;;;;;12.75;5.90;;;10.10;99.90;;;;;;5044152;28;20045;-62
2023/01/06 04:59:19;;;;;;;10.73;5.13;;;10.20;99.90;;;;;;5042487;28;20526;-61
2023/01/06 05:01:44;;;;;;;6.43;4.30;;;10.20;99.90;;;;;;5045830;28;20049;-62
2023/01/06 05:04:10;;;;;;;9.02;4.35;;;10.20;99.90;;;;;;5044387;28;20064;-62
2023/01/06 05:06:38;;;;;;;11.27;5.13;;;10.10;99.90;;;;;;5044497;28;20078;-63
2023/01/06 05:09:05;;;;;;;11.43;5.57;;;10.20;99.90;;;;;;5044168;28;21151;-63
2023/01/06 05:11:30;;;;;;;10.88;5.22;;;10.20;99.90;;;;;;5032749;28;20049;-62
2023/01/06 05:13:57;;;;;;;8.25;4.68;;;10.20;99.90;;;;;;5040736;28;20561;-62
2023/01/06 05:16:30;;;;;;;8.73;4.90;;;10.10;99.90;;;;;;5041018;28;20044;-61
2023/01/06 05:18:57;;;;;;;7.90;4.82;;;10.20;99.90;;;;;;5041504;28;20037;-63
2023/01/06 05:21:25;;;;;;;7.65;4.25;;;10.20;99.90;;;;;;5045469;28;20056;-62
2023/01/06 05:23:51;;;;;;;10.20;5.00;;;10.20;99.90;;;;;;5048713;28;20056;-62
2023/01/06 05:26:21;;;;;;;9.68;4.22;;;10.20;99.90;;;;;;5041869;28;20516;-62
2023/01/06 05:28:47;;;;;;;8.27;4.65;;;10.20;99.90;;;;;;5044472;28;21196;-62
2023/01/06 05:31:13;;;;;;;10.70;5.03;;;10.20;99.90;;;;;;5027291;28;20059;-61
2023/01/06 05:33:39;;;;;;;7.80;4.40;;;10.20;99.90;;;;;;5047139;28;20045;-62
2023/01/06 05:36:07;;;;;;;6.32;4.00;;;10.30;99.90;;;;;;5043870;28;20045;-63
2023/01/06 05:38:33;;;;;;;5.15;4.00;;;10.20;99.90;;;;;;5041207;28;20041;-62
2023/01/06 05:40:59;;;;;;;8.80;4.25;;;10.20;99.90;;;;;;5042233;28;20045;-62
2023/01/06 05:43:25;;;;;;;7.05;4.70;;;10.20;99.90;;;;;;5042364;28;20051;-62
2023/01/06 05:45:52;;;;;;;6.60;4.53;;;10.20;99.90;;;;;;5045741;28;20111;-62
2023/01/06 05:48:19;;;;;;;10.50;5.07;;;10.20;99.90;;;;;;5044433;28;20056;-62
2023/01/06 05:50:45;;;;;;;8.10;5.40;;;10.20;99.90;;;;;;5043843;28;20415;-61
2023/01/06 05:53:11;;;;;;;10.25;6.50;;;10.20;99.90;;;;;;5041397;28;20052;-62
2023/01/06 05:55:37;;;;;;;8.90;7.00;;;10.20;99.90;;;;;;5048557;28;20056;-62
2023/01/06 05:58:03;;;;;;;8.20;7.40;;;10.10;99.90;;;;;;5042400;28;20125;-61
2023/01/06 06:00:28;;;;;;;14.57;8.43;;;10.10;99.90;;;;;;5044780;28;20060;-62
2023/01/06 06:02:54;;;;;;;10.85;9.02;;;10.10;99.90;;;;;;5034813;28;20059;-62
2023/01/06 06:05:20;;;;;;;11.70;9.40;;;10.00;99.90;;;;;;5049305;28;20395;-62
2023/01/06 06:07:54;;;;;;;15.35;9.23;;;9.90;99.90;;;;;;5047222;28;20033;-62
2023/01/06 06:10:21;;;;;;;17.48;11.00;;;9.90;99.90;;;;;;5039637;28;20036;-61
2023/01/06 06:12:47;;;;;;;12.82;10.43;;;9.90;99.90;;;;;;5050736;28;20507;-62
2023/01/06 06:15:13;;;;;;;17.35;10.20;;;9.90;99.90;;;;;;5050272;28;20124;-61
2023/01/06 06:17:38;;;;;;;12.07;10.82;;;9.90;99.90;;;;;;5049793;28;20106;-62
2023/01/06 06:20:05;;;;;;;14.60;10.40;;;9.80;99.90;;;;;;5035667;28;20036;-61
2023/01/06 06:22:31;;;;;;;13.77;10.38;;;9.80;99.90;;;;;;5042338;28;20039;-60
2023/01/06 06:24:56;;;;;;;14.90;10.38;;;9.80;99.90;;;;;;5049757;28;20036;-61
2023/01/06 06:27:22;;;;;;;12.30;9.73;;;9.80;99.90;;;;;;5031990;28;20091;-62
2023/01/06 06:29:48;;;;;;;14.70;10.13;;;9.80;99.90;;;;;;5027685;28;20132;-61
2023/01/06 06:32:14;;;;;;;18.95;10.70;;;9.80;99.90;;;;;;5043018;28;20044;-61
2023/01/06 06:34:39;;;;;;;12.60;9.13;;;9.80;99.90;;;;;;5017158;28;20454;-62
2023/01/06 06:37:05;;;;;;;11.68;8.57;;;9.80;99.90;;;;;;5042311;28;20044;-62
2023/01/06 06:39:31;;;;;;;9.63;8.63;;;9.80;99.90;;;;;;5051187;28;20455;-62
2023/01/06 06:41:57;;;;;;;12.65;9.13;;;9.80;99.90;;;;;;5039832;28;20068;-61
2023/01/06 06:44:22;;;;;;;11.63;8.63;;;9.80;99.90;;;;;;5042579;28;20040;-62
2023/01/06 06:46:48;;;;;;;9.80;7.72;;;9.80;99.90;;;;;;5035166;28;20414;-61
2023/01/06 06:49:14;;;;;;;10.27;8.00;;;9.80;99.90;;;;;;5028414;28;20060;-62
2023/01/06 06:51:40;;;;;;;12.10;7.88;;;9.70;99.90;;;;;;5046378;28;20443;-62
2023/01/06 06:54:06;;;;;;;10.43;7.53;;;9.80;99.90;;;;;;5043260;28;20490;-61
2023/01/06 06:56:32;;;;;;;13.00;7.60;;;9.80;99.90;;;;;;5017044;28;20682;-61
2023/01/06 06:58:57;;;;;;;8.60;6.90;;;9.70;99.90;;;;;;5018519;28;20045;-62
2023/01/06 07:01:23;;;;;;;10.80;6.95;;;9.70;99.90;;;;;;5052995;28;20177;-61
2023/01/06 07:03:49;;;;;;;10.65;6.68;;;9.70;99.90;;;;;;5037497;28;20044;-61
2023/01/06 07:06:20;;;;;;;7.13;6.30;;;9.70;99.90;;;;;;5051544;28;20045;-61
2023/01/06 07:08:47;;;;;;;9.48;5.75;;;9.70;99.90;;;;;;5050440;28;20114;-61
2023/01/06 07:11:13;;;;;;;6.05;4.65;;;9.70;99.90;;;;;;5049783;28;20393;-60
2023/01/06 07:13:39;;;;;;;6.93;5.30;;;9.70;99.90;;;;;;5030797;28;20053;-62
2023/01/06 07:16:05;;;;;;;7.15;4.80;;;9.70;99.90;;;;;;5030712;28;20150;-61
2023/01/06 07:18:31;;;;;;;6.38;4.28;;;9.70;99.90;;;;;;5033684;28;20487;-62
2023/01/06 07:20:57;;;;;;;7.05;4.20;;;9.80;99.90;;;;;;5049640;28;20041;-62
2023/01/06 07:23:23;;;;;;;6.72;4.00;;;9.80;99.90;;;;;;5058231;28;20044;-60
2023/01/06 07:25:54;;;;;;;4.35;3.70;;;9.80;99.90;;;;;;5051481;28;20146;-62
2023/01/06 07:28:20;;;;;;;4.57;3.72;;;9.80;99.90;;;;;;5033371;28;20049;-61
2023/01/06 07:30:46;;;;;;;4.95;3.10;;;9.80;99.90;;;;;;5054521;28;20040;-62
2023/01/06 07:33:12;;;;;;;5.47;3.35;;;9.80;99.90;;;;;;5051989;28;20048;-60
2023/01/06 07:35:38;;;;;;;4.40;3.40;;;9.80;99.90;;;;;;5045519;28;20075;-61
2023/01/06 07:38:05;;;;;;;3.78;2.63;;;9.80;99.90;;;;;;5054591;28;20049;-61
2023/01/06 07:40:31;;;;;;;6.22;3.17;;;9.90;99.90;;;;;;5047874;28;20048;-61
2023/01/06 07:43:01;;;;;;;7.90;3.20;;;9.90;99.90;;;;;;5062691;28;20049;-61
2023/01/06 07:45:27;;;;;;;3.88;2.33;;;9.80;99.90;;;;;;5058008;28;20403;-61
2023/01/06 07:47:55;;;;;;;8.57;2.70;;;9.80;99.90;;;;;;5056355;28;20098;-62
2023/01/06 07:50:21;;;;;;;8.93;2.13;;;9.80;99.90;;;;;;5052682;28;20041;-62
2023/01/06 07:52:46;;;;;;;4.93;1.90;;;9.80;99.90;;;;;;5049154;28;20067;-61
2023/01/06 07:55:12;;;;;;;6.28;1.88;;;9.70;99.90;;;;;;5049500;28;20086;-62
2023/01/06 07:57:38;;;;;;;7.18;2.10;;;9.70;99.90;;;;;;5050613;28;20048;-61
2023/01/06 08:00:04;;;;;;;8.27;1.90;;;9.60;99.90;;;;;;5053609;28;20820;-61
2023/01/06 08:02:30;;;;;;;7.75;1.40;;;9.50;99.90;;;;;;5046593;28;20063;-62
2023/01/06 08:04:56;;;;;;;8.43;1.70;;;9.50;99.90;;;;;;5056415;28;20041;-61
2023/01/06 08:07:22;;;;;;;11.70;2.58;;;9.40;99.90;;;;;;5051251;28;20390;-62
2023/01/06 08:09:48;;;;;;;10.02;1.80;;;9.30;99.90;;;;;;5049083;28;20083;-62
2023/01/06 08:12:13;;;;;;;4.97;1.10;;;9.30;99.90;;;;;;5052160;28;20044;-61
2023/01/06 08:14:39;;;;;;;4.32;1.30;;;9.20;99.90;;;;;;5060351;28;20044;-62
2023/01/06 08:17:05;;;;;;;3.05;0.73;;;9.10;99.90;;;;;;5054343;28;20045;-61
2023/01/06 08:19:31;;;;;;;2.65;0.80;;;9.00;99.90;;;;;;5052997;28;20436;-61
2023/01/06 08:21:57;;;;;;;7.18;0.85;;;9.00;99.90;;;;;;5046482;28;20045;-61
2023/01/06 08:24:22;;;;;;;3.20;0.70;;;8.90;99.90;;;;;;5049904;28;20059;-62
2023/01/06 08:26:48;;;;;;;4.07;0.90;;;8.80;99.90;;;;;;5048952;28;20106;-62
2023/01/06 08:29:14;;;;;;;5.35;0.90;;;8.70;99.90;;;;;;5022371;28;20056;-61
2023/01/06 08:31:40;;;;;;;2.15;0.75;;;8.60;99.90;;;;;;5053932;28;20073;-61
2023/01/06 08:34:06;;;;;;;3.90;1.08;;;8.60;99.90;;;;;;5057556;28;20048;-61
2023/01/06 08:36:31;;;;;;;6.90;1.25;;;8.50;99.90;;;;;;5050510;28;20582;-61
2023/01/06 08:38:57;;;;;;;3.90;1.00;;;8.50;99.90;;;;;;5041841;28;20538;-61
2023/01/06 08:41:23;;;;;;;2.55;0.77;;;8.50;99.90;;;;;;5046465;28;20098;-61
2023/01/06 08:43:49;;;;;;;5.25;1.05;;;8.40;99.90;;;;;;5048397;28;20060;-61
2023/01/06 08:46:18;;;;;;;6.30;1.08;;;8.40;99.90;;;;;;5044524;28;20045;-62
2023/01/06 08:48:44;;;;;;;5.07;1.00;;;8.30;99.90;;;;;;5047455;28;20206;-62
2023/01/06 08:51:16;;;;;;;7.38;1.60;;;8.30;99.90;;;;;;5049430;28;20080;-61
2023/01/06 08:53:42;;;;;;;6.32;1.10;;;8.30;99.90;;;;;;5050839;28;20802;-62
2023/01/06 08:56:35;;;;;;;7.00;1.02;;;8.20;99.90;;;;;;5040471;28;20049;-62
2023/01/06 08:59:02;;;;;;;6.15;1.08;;;8.20;99.90;;;;;;5036983;28;20076;-61
2023/01/06 09:01:31;;;;;;;9.65;1.30;;;8.20;99.90;;;;;;5039958;28;20057;-61
2023/01/06 09:03:58;;;;;;;7.75;1.40;;;8.20;99.90;;;;;;5051400;28;20044;-61
2023/01/06 09:06:24;;;;;;;9.40;1.40;;;8.20;99.90;;;;;;5047270;28;20041;-61
2023/01/06 09:08:50;;;;;;;12.82;1.55;;;8.10;99.90;;;;;;5052464;28;20542;-62
2023/01/06 09:11:16;;;;;;;6.60;1.48;;;8.10;99.90;;;;;;5054210;28;20135;-60
2023/01/06 09:13:43;;;;;;;10.15;1.50;;;8.10;99.90;;;;;;5052330;28;20455;-61
2023/01/06 09:16:10;;;;;;;9.32;1.73;;;8.10;99.90;;;;;;5045347;28;20041;-61
2023/01/06 09:18:36;;;;;;;15.38;1.85;;;8.10;99.90;;;;;;5051704;28;20491;-61
2023/01/06 09:21:04;;;;;;;12.85;1.90;;;8.10;99.90;;;;;;5037559;28;20503;-61
2023/01/06 09:23:30;;;;;;;11.43;1.95;;;8.10;99.90;;;;;;5052747;28;20037;-60
2023/01/06 09:25:57;;;;;;;12.23;1.92;;;8.20;99.90;;;;;;5053760;28;20040;-62
2023/01/06 09:28:23;;;;;;;11.40;1.42;;;8.20;99.90;;;;;;5055280;28;20044;-62
2023/01/06 09:30:49;;;;;;;13.57;2.05;;;8.20;99.90;;;;;;5051353;28;20068;-62
2023/01/06 09:33:15;;;;;;;11.25;1.50;;;8.20;99.90;;;;;;5056001;28;20486;-61
2023/01/06 09:35:43;;;;;;;15.98;2.40;;;8.20;99.90;;;;;;5045464;28;20049;-60
2023/01/06 09:38:10;;;;;;;10.88;1.90;;;8.20;99.90;;;;;;5050241;28;20445;-61
2023/01/06 09:41:13;;;;;;;9.88;1.50;;;8.30;99.90;;;;;;5052862;28;20049;-60
2023/01/06 09:43:58;;;;;;;11.48;1.80;;;8.30;99.90;;;;;;5047684;28;20037;-61
2023/01/06 09:46:29;;;;;;;12.15;1.95;;;8.30;99.90;;;;;;5050959;28;20078;-62
2023/01/06 09:49:08;;;;;;;12.95;2.45;;;8.40;99.90;;;;;;5039547;28;20079;-60
2023/01/06 09:51:36;;;;;;;15.10;1.85;;;8.50;99.90;;;;;;5047345;28;20056;-61
2023/01/06 09:54:15;;;;;;;16.08;1.90;;;8.50;99.90;;;;;;5051018;28;20119;-61
2023/01/06 09:56:43;;;;;;;18.38;2.75;;;8.60;99.90;;;;;;5048603;28;20135;-60
2023/01/06 09:59:37;;;;;;;15.23;2.45;;;8.60;99.90;;;;;;5046700;28;20130;-61
2023/01/06 10:02:13;;;;;;;16.58;2.22;;;8.60;99.90;;;;;;5043183;28;20104;-61
2023/01/06 10:04:39;;;;;;;12.48;2.05;;;8.60;99.90;;;;;;5050913;28;20080;-60
2023/01/06 10:07:30;;;;;;;9.80;1.88;;;8.70;99.90;;;;;;5049674;28;20083;-61
2023/01/06 10:10:27;;;;;;;15.07;2.00;;;8.70;99.90;;;;;;5057924;28;20037;-61
2023/01/06 10:13:07;;;;;;;11.30;1.73;;;8.70;99.90;;;;;;5049552;28;20032;-61
2023/01/06 10:15:58;;;;;;;13.40;1.98;;;8.70;99.90;;;;;;5037377;28;20056;-61
2023/01/06 10:18:51;;;;;;;17.45;2.25;;;8.70;99.90;;;;;;5032139;28;20375;-61
2023/01/06 10:21:37;;;;;;;16.63;2.10;;;8.70;99.90;;;;;;5051816;28;20121;-62
2023/01/06 10:24:30;;;;;;;15.90;2.20;;;8.80;99.90;;;;;;5054399;28;20041;-60
2023/01/06 10:27:25;;;;;;;13.90;2.38;;;8.80;99.90;;;;;;5045705;28;20049;-60
2023/01/06 10:29:53;;;;;;;8.65;1.85;;;8.80;99.90;;;;;;5048956;28;20049;-61
2023/01/06 10:32:21;;;;;;;15.32;2.10;;;8.90;99.90;;;;;;5050892;28;20524;-61
2023/01/06 10:34:49;;;;;;;18.92;2.25;;;8.90;99.90;;;;;;5046871;28;20080;-61
2023/01/06 10:37:30;;;;;;;15.07;2.03;;;9.00;99.90;;;;;;5043280;28;20132;-60
2023/01/06 10:40:03;;;;;;;8.63;1.60;;;9.10;99.90;;;;;;5049253;28;20128;-60
2023/01/06 10:43:02;;;;;;;12.98;1.90;;;9.10;99.90;;;;;;5050365;28;20048;-62
2023/01/06 10:45:27;;;;;;;14.35;1.85;;;9.10;99.90;;;;;;5047452;28;20123;-61
2023/01/06 10:47:54;;;;;;;9.50;1.65;;;9.20;99.90;;;;;;5040960;28;20075;-62
2023/01/06 10:50:20;;;;;;;14.90;2.25;;;9.20;99.90;;;;;;5046790;28;20052;-60
2023/01/06 10:52:48;;;;;;;17.00;2.22;;;9.30;99.90;;;;;;5050012;28;20045;-61
2023/01/06 10:55:38;;;;;;;12.80;1.98;;;9.40;99.90;;;;;;5052717;28;20120;-61
2023/01/06 10:58:32;;;;;;;12.57;1.92;;;9.40;99.90;;;;;;5049321;28;20072;-61
2023/01/06 11:01:08;;;;;;;12.27;1.75;;;9.50;99.90;;;;;;5050284;28;20051;-60
2023/01/06 11:03:35;;;;;;;9.38;2.00;;;9.50;99.90;;;;;;5042634;28;20040;-61
2023/01/06 11:06:26;;;;;;;8.60;1.73;;;9.50;99.90;;;;;;5050758;28;20059;-61
2023/01/06 11:08:52;;;;;;;11.00;1.77;;;9.50;99.90;;;;;;5049305;28;20082;-60
2023/01/06 11:11:21;;;;;;;17.48;1.92;;;9.50;99.90;;;;;;5041957;28;20052;-61
2023/01/06 11:13:54;;;;;;;17.73;1.95;;;9.60;99.90;;;;;;5053072;28;20049;-61
2023/01/06 11:16:35;;;;;;;14.30;1.70;;;9.60;99.90;;;;;;5047916;28;20048;-60
2023/01/06 11:19:06;;;;;;;13.48;2.00;;;9.70;99.90;;;;;;5051321;28;20518;-61
2023/01/06 11:21:43;;;;;;;15.02;2.47;;;9.70;99.90;;;;;;5049682;28;20072;-61
2023/01/06 11:24:18;;;;;;;13.50;2.15;;;9.90;99.90;;;;;;5052550;28;20544;-61
2023/01/06 11:26:56;;;;;;;11.57;1.80;;;9.90;99.90;;;;;;5062398;28;20056;-61
2023/01/06 11:29:32;;;;;;;9.60;1.88;;;10.00;99.90;;;;;;5052484;28;20116;-61
2023/01/06 11:32:14;;;;;;;10.88;1.75;;;10.00;99.90;;;;;;5051812;28;20049;-60
2023/01/06 11:34:49;;;;;;;17.50;3.17;;;10.00;99.90;;;;;;5049319;28;20053;-60
2023/01/06 11:37:27;;;;;;;13.55;1.85;;;10.00;99.90;;;;;;5040849;28;20041;-60
2023/01/06 11:39:53;;;;;;;15.32;2.20;;;10.00;99.90;;;;;;5027676;28;20041;-61
2023/01/06 11:42:20;;;;;;;13.40;2.10;;;9.90;99.90;;;;;;5032418;28;20051;-61
2023/01/06 11:44:46;;;;;;;14.02;2.22;;;9.90;99.90;;;;;;5035522;28;20061;-61
2023/01/06 11:47:30;;;;;;;12.25;2.30;;;9.90;99.90;;;;;;5046369;28;20045;-62
2023/01/06 11:50:00;;;;;;;11.02;1.77;;;9.90;99.90;;;;;;5046690;28;20076;-62
2023/01/06 11:52:31;;;;;;;17.02;2.33;;;9.80;99.90;;;;;;5045751;28;21063;-61
2023/01/06 11:55:19;;;;;;;13.55;1.85;;;9.80;99.90;;;;;;5044329;28;20475;-61
2023/01/06 11:57:51;;;;;;;11.02;2.08;;;9.80;99.90;;;;;;5048793;28;20056;-60
2023/01/06 12:00:34;;;;;;;10.77;2.03;;;9.80;99.90;;;;;;5049248;28;20495;-62
2023/01/06 12:03:09;;;;;;;;;;;9.80;99.90;;;;;;5046214;28;20083;-61
2023/01/06 12:05:41;;;;;;;9.48;1.60;;;9.80;99.90;;;;;;5058375;28;19920;-62
2023/01/06 12:08:18;;;;;;;15.20;2.10;;;9.80;99.90;;;;;;5049743;28;20055;-61
2023/01/06 12:10:50;;;;;;;13.32;2.13;;;9.70;99.90;;;;;;5046458;28;20052;-61
2023/01/06 12:13:16;;;;;;;26.00;2.53;;;9.70;99.90;;;;;;5027495;28;20041;-61
2023/01/06 12:15:45;;;;;;;12.15;2.20;;;9.70;99.90;;;;;;5048821;28;20045;-62
2023/01/06 12:18:26;;;;;;;11.30;2.50;;;9.70;99.90;;;;;;5052101;28;20106;-61
2023/01/06 12:20:54;;;;;;;18.05;2.28;;;9.70;99.90;;;;;;5037583;28;20127;-61
2023/01/06 12:23:36;;;;;;;15.73;2.35;;;9.70;99.90;;;;;;5053746;28;20067;-61
2023/01/06 12:26:08;;;;;;;14.82;2.30;;;9.60;99.90;;;;;;5050140;28;20048;-61
2023/01/06 12:28:39;;;;;;;12.68;2.40;;;9.60;99.90;;;;;;5054973;28;20048;-62
2023/01/06 12:31:10;;;;;;;12.73;2.30;;;9.60;99.90;;;;;;5047621;28;20045;-62
2023/01/06 12:33:42;;;;;;;17.17;2.22;;;9.50;99.90;;;;;;5050168;28;20754;-60
2023/01/06 12:36:33;;;;;;;14.02;1.80;;;9.60;99.90;;;;;;5056862;28;21383;-60
2023/01/06 12:39:15;;;;;;;14.52;2.17;;;9.50;99.90;;;;;;5053486;28;20044;-61
2023/01/06 12:42:02;;;;;;;12.35;2.13;;;9.50;99.90;;;;;;5042637;28;20045;-60
2023/01/06 12:44:45;;;;;;;12.77;2.25;;;9.50;99.90;;;;;;5052588;28;20072;-61
2023/01/06 12:47:17;;;;;;;10.55;1.80;;;9.50;99.90;;;;;;5043072;28;20052;-62
2023/01/06 12:49:47;;;;;;;14.93;2.60;;;9.50;99.90;;;;;;5051506;28;20048;-61
2023/01/06 12:52:26;;;;;;;11.05;2.17;;;9.50;99.90;;;;;;5055964;28;20136;-61
2023/01/06 12:54:54;;;;;;;15.05;2.50;;;9.50;99.90;;;;;;5045709;28;20036;-60
2023/01/06 12:57:40;;;;;;;17.35;2.35;;;9.50;99.90;;;;;;5046565;28;20052;-60
2023/01/06 13:00:27;;;;;;;20.27;2.33;;;9.50;99.90;;;;;;5033987;28;20136;-60
2023/01/06 13:03:30;;;;;;;11.90;2.17;;;9.60;99.90;;;;;;5052079;28;20041;-61
2023/01/06 13:06:14;;;;;;;;;;;9.70;99.90;;;;;;5054672;28;20239;-60
2023/01/06 13:09:05;;;;;;;18.02;2.60;;;9.70;99.90;;;;;;5048653;28;19954;-61